Time;durP1;ratioP1;P1;durP2;ratioP2;P2;SDS_P1;SDS_P2;PMS_P1;PMS_P2;Temp;Humidity;BMP_temperature;BMP_pressure;BME280_temperature;BME280_humidity;BME280_pressure;Samples;Min_cycle;Max_cycle;Signal;HPM_P1;HPM_P2
2024/01/29 07:28:55;;;;;;;7.38;3.53;;;;;;;;;;2089840;28;20576;-65
2024/01/29 07:41:09;;;;;;;6.25;3.75;;;;;;;;;;2084819;28;20557;-65
2024/01/29 07:43:10;;;;;;;7.07;4.00;;;;;;;;;;2101071;27;21087;-63
2024/01/29 07:44:12;;;;;;;8.48;4.32;;;;;;;;;;2099725;28;20201;-63
2024/01/29 07:45:14;;;;;;;8.55;4.47;;;;;;;;;;2096919;28;20204;-64
2024/01/29 07:46:15;;;;;;;11.02;3.72;;;;;;;;;;2097968;28;20238;-64
2024/01/29 07:47:16;;;;;;;9.02;3.38;;;;;;;;;;2089550;28;20224;-64
2024/01/29 07:48:21;;;;;;;7.28;4.22;;;;;;;;;;2077499;28;20694;-64
2024/01/29 07:49:22;;;;;;;8.57;4.95;;;;;;;;;;2081545;28;20215;-64
2024/01/29 07:50:24;;;;;;;13.18;6.30;;;;;;;;;;2082725;28;20197;-64
2024/01/29 07:51:25;;;;;;;11.10;5.75;;;;;;;;;;2082305;28;20202;-64
2024/01/29 07:52:27;;;;;;;13.23;6.78;;;;;;;;;;2075859;28;20227;-68
2024/01/29 07:53:28;;;;;;;13.38;7.55;;;;;;;;;;2072742;28;20230;-68
2024/01/29 07:54:30;;;;;;;12.15;6.43;;;;;;;;;;2072523;28;20215;-69
2024/01/29 07:55:31;;;;;;;12.77;6.00;;;;;;;;;;2068959;28;20204;-69
2024/01/29 07:56:32;;;;;;;11.07;6.20;;;;;;;;;;2071268;28;20827;-72
2024/01/29 07:57:34;;;;;;;15.30;6.70;;;;;;;;;;2067590;28;20260;-72
2024/01/29 07:58:35;;;;;;;7.50;4.43;;;;;;;;;;2068278;28;20198;-72
2024/01/29 07:59:36;;;;;;;9.35;4.55;;;;;;;;;;2069587;28;20616;-72
2024/01/29 08:00:39;;;;;;;8.80;4.68;;;;;;;;;;2071052;28;20194;-72
2024/01/29 08:01:44;;;;;;;8.77;4.70;;;;;;;;;;2070739;28;20205;-72
2024/01/29 08:02:46;;;;;;;11.27;4.03;;;;;;;;;;2071156;28;20225;-72
2024/01/29 08:03:47;;;;;;;8.20;3.85;;;;;;;;;;2069044;28;20245;-72
2024/01/29 08:04:49;;;;;;;4.68;3.20;;;;;;;;;;2067699;28;20558;-70
2024/01/29 08:05:51;;;;;;;8.93;3.65;;;;;;;;;;2066893;28;20189;-69
2024/01/29 08:06:52;;;;;;;7.65;3.42;;;;;;;;;;2068528;28;20198;-69
2024/01/29 08:07:54;;;;;;;4.88;3.00;;;;;;;;;;2068320;28;20194;-70
2024/01/29 08:08:55;;;;;;;10.23;3.38;;;;;;;;;;2071344;28;20246;-69
2024/01/29 08:10:00;;;;;;;8.25;3.78;;;;;;;;;;2068230;28;20196;-69
2024/01/29 08:11:03;;;;;;;6.70;3.20;;;;;;;;;;2070342;28;20198;-69
2024/01/29 08:12:05;;;;;;;7.93;3.35;;;;;;;;;;2059847;28;20218;-69
2024/01/29 08:13:06;;;;;;;7.15;3.80;;;;;;;;;;2065636;28;20648;-69
2024/01/29 08:14:08;;;;;;;7.95;3.42;;;;;;;;;;2064541;28;20197;-69
2024/01/29 08:15:09;;;;;;;6.97;3.40;;;;;;;;;;2071657;28;20822;-69
2024/01/29 08:16:10;;;;;;;5.35;3.10;;;;;;;;;;2073725;28;20204;-69
2024/01/29 08:17:12;;;;;;;8.02;3.42;;;;;;;;;;2065478;28;20229;-69
2024/01/29 08:18:13;;;;;;;10.73;5.97;;;;;;;;;;2069882;28;20244;-69
2024/01/29 08:19:15;;;;;;;9.95;5.55;;;;;;;;;;2069418;28;20201;-69
2024/01/29 08:20:20;;;;;;;13.85;8.93;;;;;;;;;;2069384;28;20285;-69
2024/01/29 08:21:21;;;;;;;24.15;10.50;;;;;;;;;;2073762;28;20205;-68
2024/01/29 08:22:23;;;;;;;20.30;10.68;;;;;;;;;;2066416;28;20754;-63
2024/01/29 08:23:24;;;;;;;15.75;9.73;;;;;;;;;;2073325;28;20264;-63
2024/01/29 08:24:26;;;;;;;16.20;8.43;;;;;;;;;;2072744;28;20201;-62
2024/01/29 08:25:27;;;;;;;16.55;7.90;;;;;;;;;;2069245;28;20754;-63
2024/01/29 08:26:29;;;;;;;16.55;7.57;;;;;;;;;;2067378;28;20546;-63
2024/01/29 08:27:31;;;;;;;23.65;9.40;;;;;;;;;;2069725;28;20230;-63
2024/01/29 08:28:33;;;;;;;18.08;8.75;;;;;;;;;;2072355;28;20193;-62
2024/01/29 08:29:34;;;;;;;14.63;8.68;;;;;;;;;;2070371;28;20726;-63
2024/01/29 08:30:35;;;;;;;17.23;9.70;;;;;;;;;;2071715;28;20191;-63
2024/01/29 08:31:38;;;;;;;17.20;9.00;;;;;;;;;;2074595;28;20198;-63
2024/01/29 08:32:41;;;;;;;15.63;8.85;;;;;;;;;;2073859;28;20245;-63
2024/01/29 08:33:43;;;;;;;16.08;7.78;;;;;;;;;;2070562;28;20190;-63
2024/01/29 08:34:45;;;;;;;15.18;6.68;;;;;;;;;;2073364;28;20242;-64
2024/01/29 08:35:46;;;;;;;9.25;6.28;;;;;;;;;;2076050;28;20190;-63
2024/01/29 08:36:48;;;;;;;11.65;6.75;;;;;;;;;;2071159;28;20202;-63
2024/01/29 08:37:49;;;;;;;12.95;8.15;;;;;;;;;;2067817;28;20223;-63
2024/01/29 08:38:51;;;;;;;20.23;10.63;;;;;;;;;;2073954;28;20193;-64
2024/01/29 08:39:52;;;;;;;19.02;10.70;;;;;;;;;;2071745;28;20627;-64
2024/01/29 08:40:55;;;;;;;17.98;10.70;;;;;;;;;;2070488;28;20194;-64
2024/01/29 08:41:57;;;;;;;18.67;11.40;;;;;;;;;;2070960;28;20205;-64
2024/01/29 08:42:58;;;;;;;15.18;9.18;;;;;;;;;;2071297;28;20235;-63
2024/01/29 08:44:03;;;;;;;15.95;8.20;;;;;;;;;;2070814;28;20366;-64
2024/01/29 08:45:04;;;;;;;13.15;8.30;;;;;;;;;;2071027;28;20193;-64
2024/01/29 08:46:06;;;;;;;20.70;8.68;;;;;;;;;;2071396;28;20190;-64
2024/01/29 08:47:07;;;;;;;13.52;8.85;;;;;;;;;;2069876;28;20281;-64
2024/01/29 08:48:09;;;;;;;16.33;8.27;;;;;;;;;;2068338;28;20198;-65
2024/01/29 08:49:12;;;;;;;13.13;6.72;;;;;;;;;;2068417;28;20198;-64
2024/01/29 08:50:14;;;;;;;11.40;6.55;;;;;;;;;;2072714;28;20291;-69
2024/01/29 08:51:15;;;;;;;11.80;5.72;;;;;;;;;;2074920;28;20709;-69
2024/01/29 08:52:16;;;;;;;9.38;5.88;;;;;;;;;;2069293;28;20242;-69
2024/01/29 08:53:18;;;;;;;11.98;6.72;;;;;;;;;;2069238;28;20209;-69
2024/01/29 08:54:19;;;;;;;15.23;7.00;;;;;;;;;;2065914;28;20196;-69
2024/01/29 08:55:22;;;;;;;8.63;5.10;;;;;;;;;;2066743;28;20198;-69
2024/01/29 08:56:23;;;;;;;14.45;4.68;;;;;;;;;;2069012;28;20198;-69
2024/01/29 08:57:25;;;;;;;7.30;5.28;;;;;;;;;;2066671;28;20569;-69
2024/01/29 08:58:26;;;;;;;7.93;5.03;;;;;;;;;;2066332;28;20579;-69
2024/01/29 08:59:31;;;;;;;8.18;4.03;;;;;;;;;;2063966;28;20233;-69
2024/01/29 09:00:32;;;;;;;6.90;3.65;;;;;;;;;;2065770;28;20205;-69
2024/01/29 09:01:34;;;;;;;12.20;3.97;;;;;;;;;;2065627;28;20206;-69
2024/01/29 09:02:37;;;;;;;7.22;3.45;;;;;;;;;;2064432;28;20277;-69
2024/01/29 09:03:38;;;;;;;9.40;4.35;;;;;;;;;;2073847;28;20535;-69
2024/01/29 09:04:43;;;;;;;6.93;4.30;;;;;;;;;;2066730;28;20197;-69
2024/01/29 09:05:44;;;;;;;7.65;5.35;;;;;;;;;;2067190;28;20615;-69
2024/01/29 09:06:46;;;;;;;10.60;5.80;;;;;;;;;;2070557;28;20868;-68
2024/01/29 09:07:47;;;;;;;10.15;5.90;;;;;;;;;;2064237;28;20631;-68
2024/01/29 09:08:49;;;;;;;8.25;4.95;;;;;;;;;;2065642;28;20313;-68
2024/01/29 09:09:50;;;;;;;10.10;5.05;;;;;;;;;;2065194;28;20198;-68
2024/01/29 09:10:51;;;;;;;9.25;5.07;;;;;;;;;;2064051;28;20226;-68
2024/01/29 09:11:53;;;;;;;9.10;4.68;;;;;;;;;;2065206;28;20281;-68
2024/01/29 09:12:54;;;;;;;6.82;4.32;;;;;;;;;;2064208;28;20210;-68
2024/01/29 09:13:55;;;;;;;8.57;5.25;;;;;;;;;;2063035;28;20202;-68
2024/01/29 09:14:57;;;;;;;11.63;6.53;;;;;;;;;;2063986;28;20202;-68
2024/01/29 09:15:59;;;;;;;11.45;6.38;;;;;;;;;;2065074;28;20206;-68
2024/01/29 09:17:04;;;;;;;11.23;7.32;;;;;;;;;;2062398;28;20225;-68
2024/01/29 09:18:05;;;;;;;16.20;8.70;;;;;;;;;;2062770;28;20199;-68
2024/01/29 09:19:07;;;;;;;15.57;9.35;;;;;;;;;;2074409;28;20288;-68
2024/01/29 09:20:08;;;;;;;17.73;10.30;;;;;;;;;;2075845;28;20201;-68
2024/01/29 09:21:10;;;;;;;14.75;9.98;;;;;;;;;;2064480;28;20298;-68
2024/01/29 09:22:12;;;;;;;22.20;9.70;;;;;;;;;;2063269;28;20286;-68
2024/01/29 09:23:13;;;;;;;23.15;10.05;;;;;;;;;;2064901;28;20259;-68
2024/01/29 09:24:16;;;;;;;14.20;8.77;;;;;;;;;;2064018;28;20190;-68
2024/01/29 09:25:17;;;;;;;17.20;8.52;;;;;;;;;;2062743;28;20661;-68
2024/01/29 09:26:19;;;;;;;12.13;8.73;;;;;;;;;;2063898;28;20203;-68
2024/01/29 09:27:20;;;;;;;11.70;7.90;;;;;;;;;;2055269;28;20226;-68
2024/01/29 09:28:22;;;;;;;18.55;8.50;;;;;;;;;;2058113;28;20202;-68
2024/01/29 09:29:23;;;;;;;17.60;8.25;;;;;;;;;;2067116;28;20253;-68
2024/01/29 09:30:24;;;;;;;12.93;7.70;;;;;;;;;;2065000;28;20225;-68
2024/01/29 09:31:26;;;;;;;12.93;8.07;;;;;;;;;;2064334;28;20206;-68
2024/01/29 09:32:27;;;;;;;11.07;8.10;;;;;;;;;;2055288;28;20632;-68
2024/01/29 09:33:29;;;;;;;16.50;7.10;;;;;;;;;;2066822;28;20613;-68
2024/01/29 09:34:30;;;;;;;12.43;7.75;;;;;;;;;;2068389;28;20197;-68
2024/01/29 09:35:32;;;;;;;15.93;8.23;;;;;;;;;;2065867;28;20203;-68
2024/01/29 09:36:34;;;;;;;10.38;6.63;;;;;;;;;;2065162;28;20225;-68
2024/01/29 09:37:37;;;;;;;17.58;7.78;;;;;;;;;;2061219;28;20229;-68
2024/01/29 09:38:38;;;;;;;12.02;7.53;;;;;;;;;;2061567;28;20226;-68
2024/01/29 09:39:40;;;;;;;11.75;7.10;;;;;;;;;;2065317;28;20198;-69
2024/01/29 09:40:45;;;;;;;10.98;6.93;;;;;;;;;;2063935;28;20206;-69
2024/01/29 09:41:47;;;;;;;11.13;7.35;;;;;;;;;;2058217;28;20252;-69
2024/01/29 09:42:50;;;;;;;11.82;8.18;;;;;;;;;;2072854;28;20776;-69
2024/01/29 09:43:53;;;;;;;13.65;7.78;;;;;;;;;;2071240;28;20791;-69
2024/01/29 09:44:55;;;;;;;11.23;7.35;;;;;;;;;;2068982;28;20258;-69
2024/01/29 09:46:00;;;;;;;10.43;6.50;;;;;;;;;;2067514;28;20244;-69
2024/01/29 09:47:02;;;;;;;10.85;6.72;;;;;;;;;;2064709;28;20226;-69
2024/01/29 09:48:04;;;;;;;9.10;5.60;;;;;;;;;;2063396;28;20253;-69
2024/01/29 09:49:06;;;;;;;13.13;6.30;;;;;;;;;;2063839;28;20195;-69
2024/01/29 09:50:09;;;;;;;9.80;6.18;;;;;;;;;;2064328;28;20198;-69
2024/01/29 09:51:13;;;;;;;13.45;7.50;;;;;;;;;;2064579;28;20199;-69
2024/01/29 09:52:15;;;;;;;13.30;7.78;;;;;;;;;;2063107;28;20209;-69
2024/01/29 09:53:20;;;;;;;13.48;7.85;;;;;;;;;;2067515;28;20229;-69
2024/01/29 09:54:22;;;;;;;13.18;7.78;;;;;;;;;;2058816;28;20701;-69
2024/01/29 09:55:26;;;;;;;11.75;7.35;;;;;;;;;;2058079;28;20727;-69
2024/01/29 09:56:28;;;;;;;11.73;7.50;;;;;;;;;;2066119;28;20260;-69
2024/01/29 09:57:29;;;;;;;9.93;6.18;;;;;;;;;;2059408;28;20230;-69
2024/01/29 09:58:31;;;;;;;8.50;5.45;;;;;;;;;;2061709;28;20286;-69
2024/01/29 09:59:33;;;;;;;9.05;6.05;;;;;;;;;;2059777;28;20195;-69
2024/01/29 10:00:34;;;;;;;11.77;5.72;;;;;;;;;;2067005;28;20777;-69
2024/01/29 10:01:36;;;;;;;9.15;4.82;;;;;;;;;;2069700;28;20198;-69
2024/01/29 10:02:39;;;;;;;8.85;5.05;;;;;;;;;;2062713;28;20249;-69
2024/01/29 10:03:41;;;;;;;8.13;4.85;;;;;;;;;;2062005;28;20638;-69
2024/01/29 10:04:42;;;;;;;8.93;4.60;;;;;;;;;;2060953;28;20654;-69
2024/01/29 10:05:44;;;;;;;8.73;5.20;;;;;;;;;;2062631;28;20250;-69
2024/01/29 10:06:46;;;;;;;8.15;4.78;;;;;;;;;;2063662;28;20195;-69
2024/01/29 10:07:49;;;;;;;8.40;4.60;;;;;;;;;;2061579;28;20593;-69
2024/01/29 10:08:51;;;;;;;8.25;4.80;;;;;;;;;;2064747;28;20589;-69
2024/01/29 10:09:52;;;;;;;8.73;4.55;;;;;;;;;;2065926;28;20195;-69
2024/01/29 10:10:54;;;;;;;11.50;4.43;;;;;;;;;;2068955;28;20197;-69
2024/01/29 10:11:56;;;;;;;7.55;4.15;;;;;;;;;;2067466;28;20898;-69
2024/01/29 10:13:05;;;;;;;8.98;3.88;;;;;;;;;;2064296;28;20210;-69
2024/01/29 10:14:07;;;;;;;11.73;3.35;;;;;;;;;;2060770;28;20198;-69
2024/01/29 10:15:08;;;;;;;6.50;4.43;;;;;;;;;;2063565;28;20198;-69
2024/01/29 10:16:10;;;;;;;6.03;3.72;;;;;;;;;;2064976;28;20202;-70
2024/01/29 10:17:12;;;;;;;8.30;4.30;;;;;;;;;;2063366;28;20259;-69
2024/01/29 10:18:13;;;;;;;6.80;3.35;;;;;;;;;;2068024;28;20201;-69
2024/01/29 10:19:15;;;;;;;5.45;3.25;;;;;;;;;;2064567;28;20202;-69
2024/01/29 10:20:20;;;;;;;5.50;3.08;;;;;;;;;;2067628;28;20658;-69
2024/01/29 10:21:21;;;;;;;11.40;3.40;;;;;;;;;;2067421;28;20213;-69
2024/01/29 10:22:25;;;;;;;5.95;4.13;;;;;;;;;;2066108;28;20217;-70
2024/01/29 10:23:27;;;;;;;5.40;3.30;;;;;;;;;;2065915;28;20760;-69
2024/01/29 10:24:28;;;;;;;8.15;3.85;;;;;;;;;;2063294;28;20574;-69
2024/01/29 10:25:38;;;;;;;6.15;3.28;;;;;;;;;;2063894;28;20645;-69
2024/01/29 10:26:40;;;;;;;7.38;3.72;;;;;;;;;;2065310;28;20226;-69
2024/01/29 10:27:41;;;;;;;5.97;2.92;;;;;;;;;;2072465;28;20221;-70
2024/01/29 10:28:43;;;;;;;6.22;3.15;;;;;;;;;;2075801;28;20255;-69
2024/01/29 10:29:47;;;;;;;4.80;2.90;;;;;;;;;;2074516;28;20254;-70
2024/01/29 10:30:50;;;;;;;5.82;3.35;;;;;;;;;;2074474;28;20229;-69
2024/01/29 10:31:56;;;;;;;6.60;3.80;;;;;;;;;;2073706;28;20870;-70
2024/01/29 10:32:57;;;;;;;4.68;3.20;;;;;;;;;;2065459;28;20218;-70
2024/01/29 10:33:59;;;;;;;7.13;3.75;;;;;;;;;;2066271;28;20401;-70
2024/01/29 10:35:01;;;;;;;9.30;3.92;;;;;;;;;;2065234;28;20195;-70
2024/01/29 10:36:03;;;;;;;5.65;3.28;;;;;;;;;;2062232;28;20198;-69
2024/01/29 10:37:05;;;;;;;7.22;3.10;;;;;;;;;;2063266;28;20206;-70
2024/01/29 10:38:07;;;;;;;5.10;2.92;;;;;;;;;;2063604;28;20277;-70
2024/01/29 10:39:10;;;;;;;5.90;3.10;;;;;;;;;;2064990;28;20272;-70
2024/01/29 10:40:12;;;;;;;4.97;3.20;;;;;;;;;;2062489;28;20259;-70
2024/01/29 10:41:17;;;;;;;6.10;3.20;;;;;;;;;;2064385;28;20202;-70
2024/01/29 10:42:20;;;;;;;6.18;3.40;;;;;;;;;;2062331;28;20222;-71
2024/01/29 10:43:24;;;;;;;9.20;2.80;;;;;;;;;;2062532;28;20229;-70
2024/01/29 10:44:26;;;;;;;9.18;3.30;;;;;;;;;;2063202;28;20226;-70
2024/01/29 10:45:28;;;;;;;8.48;3.72;;;;;;;;;;2064008;28;20198;-70
2024/01/29 10:46:33;;;;;;;12.77;3.55;;;;;;;;;;2065933;28;21004;-66
2024/01/29 10:47:39;;;;;;;16.13;3.15;;;;;;;;;;2062760;28;20217;-66
2024/01/29 10:48:41;;;;;;;8.68;4.10;;;;;;;;;;2064008;28;20229;-67
2024/01/29 10:49:43;;;;;;;16.80;4.90;;;;;;;;;;2065558;28;20233;-67
2024/01/29 10:50:46;;;;;;;18.55;5.50;;;;;;;;;;2065329;28;20208;-66
2024/01/29 10:51:48;;;;;;;8.82;4.50;;;;;;;;;;2066018;28;20217;-66
2024/01/29 10:52:50;;;;;;;9.45;5.75;;;;;;;;;;2063567;28;20222;-66
2024/01/29 10:53:53;;;;;;;10.68;5.68;;;;;;;;;;2064520;28;20201;-66
2024/01/29 10:54:55;;;;;;;11.88;4.88;;;;;;;;;;2064179;28;20630;-66
2024/01/29 10:55:57;;;;;;;13.38;4.57;;;;;;;;;;2066180;28;20719;-66
2024/01/29 10:56:59;;;;;;;8.75;4.20;;;;;;;;;;2061485;28;20209;-67
2024/01/29 10:58:01;;;;;;;13.60;5.57;;;;;;;;;;2062750;28;20325;-67
2024/01/29 10:59:02;;;;;;;9.18;5.07;;;;;;;;;;2063810;28;20203;-67
2024/01/29 11:00:05;;;;;;;8.43;5.35;;;;;;;;;;2065012;28;20197;-67
2024/01/29 11:01:06;;;;;;;13.80;6.18;;;;;;;;;;2065652;28;20205;-67
2024/01/29 11:02:14;;;;;;;12.93;5.88;;;;;;;;;;2061860;28;20240;-67
2024/01/29 11:03:17;;;;;;;12.35;4.75;;;;;;;;;;2065206;28;20202;-67
2024/01/29 11:04:19;;;;;;;10.00;5.22;;;;;;;;;;2064489;28;20840;-67
2024/01/29 11:05:21;;;;;;;14.98;6.05;;;;;;;;;;2064976;28;20199;-67
2024/01/29 11:06:52;;;;;;;14.73;7.10;;;;;;;;;;2065870;28;20193;-67
2024/01/29 11:07:55;;;;;;;11.93;6.68;;;;;;;;;;2050224;28;20285;-67
2024/01/29 11:09:00;;;;;;;16.10;6.55;;;;;;;;;;2058793;28;20200;-67
2024/01/29 11:10:18;;;;;;;10.85;5.03;;;;;;;;;;2060199;28;21040;-70
2024/01/29 11:11:20;;;;;;;11.18;5.28;;;;;;;;;;2063397;28;20772;-71
2024/01/29 11:12:22;;;;;;;9.35;4.90;;;;;;;;;;2063890;28;20738;-70
2024/01/29 11:13:23;;;;;;;8.73;4.07;;;;;;;;;;2065642;28;20709;-70
2024/01/29 11:14:25;;;;;;;7.05;3.90;;;;;;;;;;2062792;28;20386;-70
2024/01/29 11:15:26;;;;;;;7.53;4.18;;;;;;;;;;2062099;28;20253;-70
2024/01/29 11:16:28;;;;;;;10.88;4.78;;;;;;;;;;2063556;28;20225;-70
2024/01/29 11:17:31;;;;;;;12.90;3.85;;;;;;;;;;2061020;28;20217;-70
2024/01/29 11:18:35;;;;;;;5.70;3.72;;;;;;;;;;2061072;28;20812;-71
2024/01/29 11:19:37;;;;;;;15.23;4.60;;;;;;;;;;2067419;28;20229;-71
2024/01/29 11:20:40;;;;;;;11.38;4.60;;;;;;;;;;2066487;28;20194;-67
2024/01/29 11:21:49;;;;;;;12.48;4.93;;;;;;;;;;2064546;28;20198;-66
2024/01/29 11:22:52;;;;;;;10.25;4.93;;;;;;;;;;2066843;28;20232;-65
2024/01/29 11:23:56;;;;;;;10.60;4.70;;;;;;;;;;2065236;28;20190;-66
2024/01/29 11:24:58;;;;;;;7.90;3.40;;;;;;;;;;2061920;28;20214;-65
2024/01/29 11:26:00;;;;;;;10.98;4.63;;;;;;;;;;2074511;28;20190;-66
2024/01/29 11:27:08;;;;;;;6.13;3.70;;;;;;;;;;2071114;28;20190;-66
2024/01/29 11:28:10;;;;;;;11.15;4.13;;;;;;;;;;2062466;28;20732;-66
2024/01/29 11:29:12;;;;;;;13.98;4.88;;;;;;;;;;2061929;28;20803;-65
2024/01/29 11:30:16;;;;;;;10.13;4.05;;;;;;;;;;2072050;28;20752;-65
2024/01/29 11:31:17;;;;;;;8.80;3.72;;;;;;;;;;2069833;28;20193;-66
2024/01/29 11:32:19;;;;;;;9.30;4.32;;;;;;;;;;2061042;28;20209;-65
2024/01/29 11:33:21;;;;;;;7.90;4.63;;;;;;;;;;2068919;28;20204;-66
2024/01/29 11:34:27;;;;;;;10.30;4.50;;;;;;;;;;2066378;28;20685;-65
2024/01/29 11:35:30;;;;;;;11.02;4.40;;;;;;;;;;2061824;28;20320;-65
2024/01/29 11:36:40;;;;;;;10.02;5.13;;;;;;;;;;2061096;28;20190;-65
2024/01/29 11:37:42;;;;;;;6.90;4.10;;;;;;;;;;2063339;28;20710;-65
2024/01/29 11:38:43;;;;;;;16.38;4.00;;;;;;;;;;2066279;28;20265;-65
2024/01/29 11:39:44;;;;;;;6.45;3.65;;;;;;;;;;2074292;28;20227;-65
2024/01/29 11:40:46;;;;;;;10.27;4.40;;;;;;;;;;2065975;28;20221;-65
2024/01/29 11:41:48;;;;;;;6.85;4.10;;;;;;;;;;2065635;28;20230;-65
2024/01/29 11:42:50;;;;;;;15.10;4.45;;;;;;;;;;2058843;28;20501;-65
2024/01/29 11:43:51;;;;;;;15.68;4.10;;;;;;;;;;2064087;28;20673;-68
2024/01/29 11:44:53;;;;;;;7.88;3.80;;;;;;;;;;2065978;28;20211;-66
2024/01/29 11:45:54;;;;;;;8.85;3.42;;;;;;;;;;2067156;28;20237;-66
2024/01/29 11:46:57;;;;;;;7.15;3.60;;;;;;;;;;2063529;28;20206;-66
2024/01/29 11:48:02;;;;;;;11.95;4.35;;;;;;;;;;2061938;28;20222;-69
2024/01/29 11:49:03;;;;;;;9.75;4.28;;;;;;;;;;2064041;28;20202;-69
2024/01/29 11:50:05;;;;;;;14.15;3.90;;;;;;;;;;2063323;28;20235;-69
2024/01/29 11:51:07;;;;;;;8.65;4.80;;;;;;;;;;2061589;28;20203;-69
2024/01/29 11:52:10;;;;;;;14.13;4.63;;;;;;;;;;2056783;28;20195;-69
2024/01/29 11:53:16;;;;;;;9.07;4.45;;;;;;;;;;2063063;28;20245;-69
2024/01/29 11:54:17;;;;;;;7.75;3.72;;;;;;;;;;2062106;28;20195;-69
2024/01/29 11:55:20;;;;;;;13.38;4.40;;;;;;;;;;2065415;28;20201;-69
2024/01/29 11:56:22;;;;;;;9.40;4.70;;;;;;;;;;2066608;28;20220;-69
2024/01/29 11:57:23;;;;;;;8.95;4.68;;;;;;;;;;2063884;28;20224;-69
2024/01/29 11:58:25;;;;;;;11.57;4.78;;;;;;;;;;2063588;28;20193;-69
2024/01/29 11:59:27;;;;;;;8.95;4.10;;;;;;;;;;2063657;28;20558;-70
2024/01/29 12:00:29;;;;;;;9.32;4.53;;;;;;;;;;2060530;28;20237;-69
2024/01/29 12:01:33;;;;;;;9.40;5.22;;;;;;;;;;2061815;28;20209;-69
2024/01/29 12:02:35;;;;;;;10.85;5.28;;;;;;;;;;2060956;28;20718;-69
2024/01/29 12:03:38;;;;;;;10.25;4.25;;;;;;;;;;2055965;28;20226;-69
2024/01/29 12:04:39;;;;;;;11.25;4.82;;;;;;;;;;2063919;28;20206;-69
2024/01/29 12:05:41;;;;;;;11.20;5.75;;;;;;;;;;2062032;28;20296;-69
2024/01/29 12:06:42;;;;;;;9.90;4.95;;;;;;;;;;2064817;28;20248;-69
2024/01/29 12:07:44;;;;;;;10.82;5.18;;;;;;;;;;2060230;28;20301;-69
2024/01/29 12:08:49;;;;;;;13.25;4.55;;;;;;;;;;2061574;28;20319;-69
2024/01/29 12:09:50;;;;;;;12.38;4.40;;;;;;;;;;2065298;28;20237;-69
2024/01/29 12:10:57;;;;;;;12.63;3.80;;;;;;;;;;2065478;28;20281;-69
2024/01/29 12:11:58;;;;;;;7.57;3.28;;;;;;;;;;2061561;28;20194;-69
2024/01/29 12:12:59;;;;;;;9.50;3.50;;;;;;;;;;2062314;28;20219;-69
2024/01/29 12:14:01;;;;;;;7.85;3.00;;;;;;;;;;2065341;28;20224;-69
2024/01/29 12:15:03;;;;;;;8.00;2.95;;;;;;;;;;2066053;28;20861;-69
2024/01/29 12:16:05;;;;;;;19.38;3.78;;;;;;;;;;2064655;28;20198;-69
2024/01/29 12:17:07;;;;;;;9.00;2.42;;;;;;;;;;2065554;28;20193;-69
2024/01/29 12:18:13;;;;;;;6.97;1.88;;;;;;;;;;2067489;28;20198;-69
2024/01/29 12:19:14;;;;;;;12.80;2.67;;;;;;;;;;2064664;28;20206;-69
2024/01/29 12:20:16;;;;;;;9.73;2.60;;;;;;;;;;2063459;28;20862;-69
2024/01/29 12:21:18;;;;;;;9.82;2.47;;;;;;;;;;2064949;28;20208;-69
2024/01/29 12:22:19;;;;;;;34.95;3.50;;;;;;;;;;2065206;28;20264;-69
2024/01/29 12:23:23;;;;;;;16.65;2.40;;;;;;;;;;2063728;28;20605;-69
2024/01/29 12:24:26;;;;;;;20.70;3.72;;;;;;;;;;2065079;28;20210;-69
2024/01/29 12:25:28;;;;;;;9.48;2.10;;;;;;;;;;2062767;28;20751;-69
2024/01/29 12:26:30;;;;;;;9.88;1.92;;;;;;;;;;2065480;28;20198;-69
2024/01/29 12:27:31;;;;;;;10.02;2.13;;;;;;;;;;2066800;28;20916;-68
2024/01/29 12:28:33;;;;;;;24.35;2.80;;;;;;;;;;2069535;28;20201;-69
2024/01/29 12:29:38;;;;;;;22.10;2.75;;;;;;;;;;2068764;28;20198;-69
2024/01/29 12:30:39;;;;;;;12.80;2.10;;;;;;;;;;2063505;28;20230;-69
2024/01/29 12:31:41;;;;;;;13.82;2.65;;;;;;;;;;2068690;28;20205;-69
2024/01/29 12:32:43;;;;;;;45.85;4.65;;;;;;;;;;2067261;28;20218;-69
2024/01/29 12:33:47;;;;;;;20.85;3.20;;;;;;;;;;2068842;28;20654;-69
2024/01/29 12:34:50;;;;;;;53.58;3.65;;;;;;;;;;2065681;28;20197;-69
2024/01/29 12:35:52;;;;;;;24.05;2.95;;;;;;;;;;2067136;28;20280;-69
2024/01/29 12:36:54;;;;;;;12.48;2.55;;;;;;;;;;2067876;28;20198;-69
2024/01/29 12:38:05;;;;;;;9.23;2.03;;;;;;;;;;2065520;28;20638;-69
2024/01/29 12:39:09;;;;;;;10.30;2.25;;;;;;;;;;2060571;28;20286;-69
2024/01/29 12:40:14;;;;;;;3.90;1.88;;;;;;;;;;2066623;28;20687;-69
2024/01/29 12:41:16;;;;;;;9.75;2.15;;;;;;;;;;2066387;28;20360;-69
2024/01/29 12:42:17;;;;;;;11.43;2.65;;;;;;;;;;2061928;28;20198;-69
2024/01/29 12:43:24;;;;;;;12.63;2.88;;;;;;;;;;2061987;28;20206;-69
2024/01/29 12:44:26;;;;;;;7.05;2.25;;;;;;;;;;2065827;28;20615;-69
2024/01/29 12:45:27;;;;;;;12.02;2.20;;;;;;;;;;2067157;28;20764;-69
2024/01/29 12:46:29;;;;;;;18.60;2.65;;;;;;;;;;2063905;28;20199;-69
2024/01/29 12:47:32;;;;;;;11.80;2.47;;;;;;;;;;2063383;28;20703;-69
2024/01/29 12:48:34;;;;;;;14.55;2.92;;;;;;;;;;2065374;28;20195;-68
2024/01/29 12:49:36;;;;;;;42.60;2.90;;;;;;;;;;2064592;28;20616;-69
2024/01/29 12:50:42;;;;;;;33.85;3.35;;;;;;;;;;2067730;28;20272;-69
2024/01/29 12:51:47;;;;;;;25.25;3.30;;;;;;;;;;2064870;28;20194;-69
2024/01/29 12:52:51;;;;;;;23.52;2.45;;;;;;;;;;2062399;28;20230;-71
2024/01/29 12:53:54;;;;;;;6.63;2.10;;;;;;;;;;2061096;28;20199;-71
2024/01/29 12:54:56;;;;;;;10.30;2.65;;;;;;;;;;2065785;28;20258;-71
2024/01/29 12:55:58;;;;;;;15.68;2.53;;;;;;;;;;2066348;28;20557;-71
2024/01/29 12:56:59;;;;;;;22.15;2.97;;;;;;;;;;2067924;28;20264;-65
2024/01/29 12:58:02;;;;;;;31.25;3.95;;;;;;;;;;2060742;28;20231;-65
2024/01/29 12:59:06;;;;;;;47.22;4.20;;;;;;;;;;2060205;28;20190;-65
2024/01/29 13:00:08;;;;;;;30.10;3.88;;;;;;;;;;2067088;28;20205;-65
2024/01/29 13:01:10;;;;;;;53.08;6.47;;;;;;;;;;2060106;28;20198;-65
2024/01/29 13:02:11;;;;;;;30.90;4.38;;;;;;;;;;2060576;28;20230;-65
2024/01/29 13:03:13;;;;;;;27.58;4.57;;;;;;;;;;2067402;28;20229;-65
2024/01/29 13:04:16;;;;;;;29.45;3.30;;;;;;;;;;2068230;28;20288;-65
2024/01/29 13:05:19;;;;;;;17.50;3.20;;;;;;;;;;2066872;28;20205;-65
2024/01/29 13:06:22;;;;;;;22.42;3.13;;;;;;;;;;2074608;28;20195;-65
2024/01/29 13:07:25;;;;;;;37.60;2.92;;;;;;;;;;2067591;28;20358;-65
2024/01/29 13:08:26;;;;;;;12.23;2.47;;;;;;;;;;2065746;28;20717;-69
2024/01/29 13:09:28;;;;;;;7.50;1.90;;;;;;;;;;2064982;28;20198;-68
2024/01/29 13:10:30;;;;;;;3.80;1.80;;;;;;;;;;2064971;28;20865;-67
2024/01/29 13:11:32;;;;;;;9.32;2.22;;;;;;;;;;2065690;28;20206;-68
2024/01/29 13:12:33;;;;;;;14.98;2.28;;;;;;;;;;2064594;28;20231;-67
2024/01/29 13:13:35;;;;;;;6.28;2.13;;;;;;;;;;2064894;28;20649;-67
2024/01/29 13:14:36;;;;;;;6.40;2.50;;;;;;;;;;2063189;28;20209;-68
2024/01/29 13:15:39;;;;;;;14.98;2.80;;;;;;;;;;2061711;28;20632;-65
2024/01/29 13:16:42;;;;;;;8.45;2.50;;;;;;;;;;2066549;28;20205;-65
2024/01/29 13:17:44;;;;;;;13.02;2.53;;;;;;;;;;2063061;28;20218;-70
2024/01/29 13:18:45;;;;;;;30.63;3.53;;;;;;;;;;2066010;28;20193;-69
2024/01/29 13:19:47;;;;;;;23.52;3.50;;;;;;;;;;2068175;28;20722;-69
2024/01/29 13:20:49;;;;;;;16.20;3.25;;;;;;;;;;2069137;28;20247;-69
2024/01/29 13:21:50;;;;;;;39.33;3.00;;;;;;;;;;2065364;28;20195;-68
2024/01/29 13:22:52;;;;;;;13.13;2.65;;;;;;;;;;2064503;28;20241;-69
2024/01/29 13:23:53;;;;;;;28.90;3.53;;;;;;;;;;2062202;28;20203;-69
2024/01/29 13:24:55;;;;;;;46.55;4.20;;;;;;;;;;2062646;28;20780;-69
2024/01/29 13:25:56;;;;;;;36.00;3.13;;;;;;;;;;2071200;28;20700;-69
2024/01/29 13:26:58;;;;;;;25.35;3.63;;;;;;;;;;2068715;28;20662;-71
2024/01/29 13:28:00;;;;;;;15.32;2.83;;;;;;;;;;2055594;28;20257;-72
2024/01/29 13:29:15;;;;;;;20.13;3.00;;;;;;;;;;2057092;28;20206;-71
2024/01/29 13:30:17;;;;;;;17.58;3.00;;;;;;;;;;2062358;28;20195;-72
2024/01/29 13:31:18;;;;;;;12.45;2.72;;;;;;;;;;2064566;28;20194;-71
2024/01/29 13:32:20;;;;;;;10.52;2.45;;;;;;;;;;2064138;28;20245;-71
2024/01/29 13:33:21;;;;;;;9.63;2.47;;;;;;;;;;2063058;28;20269;-71
2024/01/29 13:34:23;;;;;;;6.40;1.92;;;;;;;;;;2062702;28;20252;-71
2024/01/29 13:35:24;;;;;;;12.95;2.75;;;;;;;;;;2063974;28;20195;-68
2024/01/29 13:36:26;;;;;;;5.63;2.20;;;;;;;;;;2064293;28;20211;-68
2024/01/29 13:37:27;;;;;;;4.03;2.30;;;;;;;;;;2061692;28;20233;-68
2024/01/29 13:38:29;;;;;;;11.55;2.17;;;;;;;;;;2063900;28;20674;-65
2024/01/29 13:39:30;;;;;;;6.60;2.25;;;;;;;;;;2064650;28;20202;-65
2024/01/29 13:40:32;;;;;;;9.13;2.65;;;;;;;;;;2065771;28;20209;-65
2024/01/29 13:41:33;;;;;;;12.07;2.70;;;;;;;;;;2065948;28;20205;-65
2024/01/29 13:42:34;;;;;;;6.72;2.50;;;;;;;;;;2063308;28;20610;-65
2024/01/29 13:43:36;;;;;;;7.22;2.60;;;;;;;;;;2068590;28;20255;-65
2024/01/29 13:44:38;;;;;;;4.40;2.20;;;;;;;;;;2067322;28;20198;-66
2024/01/29 13:45:41;;;;;;;7.07;2.85;;;;;;;;;;2061980;28;20214;-66
2024/01/29 13:46:43;;;;;;;4.68;2.70;;;;;;;;;;2064571;28;20705;-67
2024/01/29 13:47:46;;;;;;;11.18;2.85;;;;;;;;;;2061053;28;20586;-66
2024/01/29 13:48:48;;;;;;;9.82;2.78;;;;;;;;;;2065652;28;20248;-66
2024/01/29 13:49:49;;;;;;;11.75;2.83;;;;;;;;;;2065011;28;20197;-67
2024/01/29 13:50:50;;;;;;;12.82;3.38;;;;;;;;;;2065539;28;20202;-66
2024/01/29 13:51:52;;;;;;;11.18;3.08;;;;;;;;;;2068166;28;20202;-67